createdAt,value
2023-04-07T00:00:08.734Z,9.59
2023-04-07T00:10:11.890Z,9.44
2023-04-07T00:20:16.165Z,9.35
2023-04-07T00:30:18.975Z,9.38
2023-04-07T00:40:23.240Z,9.32
2023-04-07T00:50:26.628Z,9.17
2023-04-07T01:00:32.783Z,9.07
2023-04-07T01:10:42.995Z,9.06
2023-04-07T01:20:50.484Z,9.08
2023-04-07T01:30:57.846Z,9.03
2023-04-07T01:41:02.846Z,9.01
2023-04-07T01:51:07.725Z,8.97
2023-04-07T02:01:10.756Z,9.09
2023-04-07T02:11:17.497Z,9.16
2023-04-07T02:21:21.371Z,9.14
2023-04-07T02:31:25.558Z,9.38
2023-04-07T02:41:28.510Z,9.22
2023-04-07T02:51:32.686Z,9.30
2023-04-07T03:01:36.315Z,9.14
2023-04-07T03:11:41.550Z,9.15
2023-04-07T03:21:44.421Z,9.14
2023-04-07T03:31:48.596Z,9.15
2023-04-07T03:41:51.681Z,9.07
2023-04-07T03:51:55.848Z,8.95
2023-04-07T04:01:58.780Z,8.90
2023-04-07T04:12:02.971Z,8.87
2023-04-07T04:22:05.656Z,8.71
2023-04-07T04:32:09.698Z,8.72
2023-04-07T04:42:12.617Z,8.63
2023-04-07T04:52:16.928Z,8.63
2023-04-07T05:02:19.760Z,8.70
2023-04-07T05:12:23.938Z,8.63
2023-04-07T05:22:26.630Z,8.58
2023-04-07T05:32:30.738Z,8.57
2023-04-07T05:42:33.368Z,8.57
2023-04-07T05:52:37.357Z,8.58
2023-04-07T06:02:40.858Z,8.80
2023-04-07T06:12:45.167Z,8.89
2023-04-07T06:22:47.906Z,9.16
2023-04-07T06:32:51.996Z,9.42
2023-04-07T06:42:56.637Z,9.53
2023-04-07T06:53:00.983Z,9.63
2023-04-07T07:03:03.873Z,10.01
2023-04-07T07:13:08.221Z,10.29
2023-04-07T07:23:11.497Z,10.62
2023-04-07T07:33:15.544Z,10.94
2023-04-07T07:43:18.185Z,11.69
2023-04-07T07:53:22.198Z,11.69
2023-04-07T08:03:25.109Z,11.30
2023-04-07T08:13:29.255Z,11.48
2023-04-07T08:23:32.227Z,11.37
2023-04-07T08:33:36.351Z,11.49
2023-04-07T08:43:40.009Z,11.85
2023-04-07T08:53:50.137Z,12.64
2023-04-07T09:03:53.417Z,12.41
2023-04-07T09:13:59.043Z,12.66
2023-04-07T09:24:01.906Z,12.66
2023-04-07T09:34:24.315Z,13.26
2023-04-07T09:44:27.306Z,13.47
2023-04-07T09:54:38.953Z,13.76
2023-04-07T10:04:42.423Z,14.52
2023-04-07T10:14:48.231Z,14.68
2023-04-07T10:24:57.328Z,15.29
2023-04-07T10:35:03.004Z,15.16
2023-04-07T10:45:06.661Z,15.51
2023-04-07T10:55:39.402Z,15.85
2023-04-07T11:05:43.056Z,16.15
2023-04-07T11:15:51.212Z,17.04
2023-04-07T11:25:55.353Z,17.51
2023-04-07T11:36:01.433Z,26.25
2023-04-07T11:46:09.462Z,29.35
2023-04-07T11:56:18.381Z,31.44
2023-04-07T12:06:29.072Z,31.60
2023-04-07T12:16:34.017Z,31.83
2023-04-07T12:26:38.602Z,32.04
2023-04-07T12:36:42.661Z,32.33
2023-04-07T12:46:45.462Z,30.89
2023-04-07T12:56:49.753Z,31.96
2023-04-07T13:06:52.550Z,31.13
2023-04-07T13:16:56.795Z,30.04
2023-04-07T13:27:00.101Z,26.72
2023-04-07T13:37:04.780Z,24.74
2023-04-07T13:47:08.610Z,23.82
2023-04-07T13:57:14.506Z,25.29
2023-04-07T14:07:17.556Z,24.28
2023-04-07T14:17:21.948Z,22.76
2023-04-07T14:27:24.743Z,23.52
2023-04-07T14:37:29.212Z,22.79
2023-04-07T14:47:32.002Z,21.81
2023-04-07T14:57:36.104Z,22.51
2023-04-07T15:07:38.858Z,22.62
2023-04-07T15:17:44.972Z,21.79
2023-04-07T15:27:48.203Z,21.14
2023-04-07T15:37:52.302Z,20.00
2023-04-07T15:47:55.091Z,19.23
2023-04-07T15:57:59.365Z,19.26
2023-04-07T16:08:02.082Z,18.97
2023-04-07T16:18:08.341Z,19.27
2023-04-07T16:28:11.199Z,18.62
2023-04-07T16:38:15.329Z,18.08
2023-04-07T16:48:18.148Z,17.16
2023-04-07T16:58:22.348Z,16.79
2023-04-07T17:08:25.742Z,16.42
2023-04-07T17:18:29.924Z,16.30
2023-04-07T17:28:32.814Z,15.63
2023-04-07T17:38:36.896Z,15.00
2023-04-07T17:48:39.580Z,14.45
2023-04-07T17:58:45.455Z,13.91
2023-04-07T18:08:49.791Z,13.43
2023-04-07T18:18:53.814Z,13.01
2023-04-07T18:28:57.491Z,12.59
2023-04-07T18:39:01.536Z,12.19
2023-04-07T18:49:04.556Z,11.97
2023-04-07T18:59:08.742Z,11.72
2023-04-07T19:09:11.642Z,11.46
2023-04-07T19:19:16.883Z,11.18
2023-04-07T19:29:19.690Z,10.95
2023-04-07T19:39:23.764Z,10.74
2023-04-07T19:49:26.609Z,10.45
2023-04-07T19:59:30.704Z,10.27
2023-04-07T20:09:33.434Z,10.05
2023-04-07T20:19:37.542Z,9.79
2023-04-07T20:29:40.208Z,9.60
2023-04-07T20:39:44.217Z,9.44
2023-04-07T20:49:47.068Z,9.16
2023-04-07T20:59:51.163Z,8.98
2023-04-07T21:09:53.871Z,8.78
2023-04-07T21:19:57.969Z,8.68
2023-04-07T21:30:01.081Z,8.48
2023-04-07T21:40:05.968Z,8.35
2023-04-07T21:50:09.369Z,8.17
2023-04-07T22:00:15.819Z,7.96
2023-04-07T22:10:18.488Z,7.69
2023-04-07T22:20:22.757Z,7.63
2023-04-07T22:30:25.757Z,7.54
2023-04-07T22:40:30.019Z,7.41
2023-04-07T22:50:32.688Z,7.24
2023-04-07T23:00:36.723Z,7.13
2023-04-07T23:10:39.553Z,6.99
2023-04-07T23:20:50.882Z,6.89
2023-04-07T23:30:54.701Z,6.85
2023-04-07T23:40:58.714Z,6.69
2023-04-07T23:51:01.381Z,6.63
